createdAt,value
2023-03-22T00:00:21.864Z,99204.75
2023-03-22T00:03:24.894Z,99207.75
2023-03-22T00:06:27.777Z,99206.59
2023-03-22T00:09:31.897Z,99216.06
2023-03-22T00:12:34.624Z,99213.09
2023-03-22T00:15:39.614Z,99202.06
2023-03-22T00:18:42.386Z,99205.56
2023-03-22T00:21:45.175Z,99196.19
2023-03-22T00:24:47.956Z,99193.19
2023-03-22T00:27:50.739Z,99197.16
2023-03-22T00:30:56.272Z,99200.81
2023-03-22T00:33:59.091Z,99200.25
2023-03-22T00:37:01.846Z,99203.25
2023-03-22T00:40:04.779Z,99202.25
2023-03-22T00:43:07.546Z,99204.44
2023-03-22T00:46:12.254Z,99206.41
2023-03-22T00:49:15.034Z,99206.41
2023-03-22T00:52:17.857Z,99201.38
2023-03-22T00:55:20.613Z,99196.34
2023-03-22T00:58:23.434Z,99197.66
2023-03-22T01:01:27.701Z,99193.47
2023-03-22T01:04:31.509Z,99202.47
2023-03-22T01:07:34.681Z,99200.59
2023-03-22T01:10:37.708Z,99205.28
2023-03-22T01:13:41.916Z,99206.94
2023-03-22T01:16:46.277Z,99207.09
2023-03-22T01:19:49.052Z,99208.78
2023-03-22T01:22:51.871Z,99217.09
2023-03-22T01:25:54.636Z,99217.09
2023-03-22T01:28:58.465Z,99219.91
2023-03-22T01:32:02.616Z,99219.25
2023-03-22T01:35:05.684Z,99221.06
2023-03-22T01:38:08.757Z,99228.09
2023-03-22T01:41:11.568Z,99229.25
2023-03-22T01:44:15.512Z,99230.25
2023-03-22T01:47:19.636Z,99222.22
2023-03-22T01:50:23.334Z,99226.88
2023-03-22T01:53:27.382Z,99218.34
2023-03-22T01:56:32.548Z,99228.88
2023-03-22T01:59:35.514Z,99226.53
2023-03-22T02:02:39.896Z,99235.50
2023-03-22T02:05:42.927Z,99232.00
2023-03-22T02:08:45.857Z,99237.50
2023-03-22T02:11:51.820Z,99234.44
2023-03-22T02:15:00.301Z,99238.94
2023-03-22T02:18:16.657Z,99237.28
2023-03-22T02:21:46.248Z,99235.94
2023-03-22T02:24:56.695Z,99242.09
2023-03-22T02:28:09.717Z,99245.06
2023-03-22T02:31:22.368Z,99246.72
2023-03-22T02:34:39.049Z,99241.38
2023-03-22T02:38:09.016Z,99254.72
2023-03-22T02:41:17.181Z,99257.56
2023-03-22T02:44:25.638Z,99254.91
2023-03-22T02:47:34.365Z,99262.06
2023-03-22T02:50:39.796Z,99257.88
2023-03-22T02:53:44.877Z,99260.56
2023-03-22T02:56:51.205Z,99268.00
2023-03-22T02:59:54.302Z,99276.69
2023-03-22T03:03:00.154Z,99267.00
2023-03-22T03:06:08.501Z,99269.56
2023-03-22T03:09:13.867Z,99271.50
2023-03-22T03:12:25.954Z,99274.34
2023-03-22T03:15:28.800Z,99274.50
2023-03-22T03:18:36.820Z,99275.34
2023-03-22T03:21:46.526Z,99283.50
2023-03-22T03:24:53.733Z,99288.84
2023-03-22T03:28:03.752Z,99289.97
2023-03-22T03:31:15.003Z,99289.44
2023-03-22T03:34:20.510Z,99301.94
2023-03-22T03:37:27.051Z,99295.06
2023-03-22T03:40:32.191Z,99300.56
2023-03-22T03:43:37.258Z,99297.88
2023-03-22T03:46:40.943Z,99302.94
2023-03-22T03:49:43.729Z,99292.38
2023-03-22T03:52:46.521Z,99293.38
2023-03-22T03:55:49.527Z,99296.34
2023-03-22T03:58:53.677Z,99303.22
2023-03-22T04:01:56.666Z,99304.91
2023-03-22T04:04:59.657Z,99304.28
2023-03-22T04:08:02.387Z,99306.44
2023-03-22T04:11:05.179Z,99300.88
2023-03-22T04:14:09.361Z,99309.09
2023-03-22T04:17:12.096Z,99317.47
2023-03-22T04:20:15.297Z,99316.41
2023-03-22T04:23:18.072Z,99319.78
2023-03-22T04:26:20.868Z,99329.50
2023-03-22T04:29:25.040Z,99328.72
2023-03-22T04:32:27.884Z,99336.25
2023-03-22T04:35:30.661Z,99338.63
2023-03-22T04:38:33.444Z,99336.63
2023-03-22T04:41:37.190Z,99345.06
2023-03-22T04:44:41.273Z,99353.59
2023-03-22T04:47:44.123Z,99354.28
2023-03-22T04:50:46.956Z,99356.78
2023-03-22T04:53:49.746Z,99357.47
2023-03-22T04:56:52.525Z,99358.84
2023-03-22T04:59:56.702Z,99366.69
2023-03-22T05:02:59.564Z,99378.44
2023-03-22T05:06:04.058Z,99369.75
2023-03-22T05:09:07.259Z,99380.09
2023-03-22T05:12:10.045Z,99376.94
2023-03-22T05:15:14.323Z,99373.25
2023-03-22T05:18:17.271Z,99379.72
2023-03-22T05:21:22.140Z,99375.38
2023-03-22T05:24:24.954Z,99382.88
2023-03-22T05:27:31.954Z,99391.06
2023-03-22T05:30:36.266Z,99382.19
2023-03-22T05:33:39.312Z,99386.19
2023-03-22T05:36:42.066Z,99390.53
2023-03-22T05:39:44.855Z,99394.66
2023-03-22T05:42:47.661Z,99392.31
2023-03-22T05:45:51.835Z,99387.13
2023-03-22T05:48:54.620Z,99390.72
2023-03-22T05:51:57.659Z,99389.06
2023-03-22T05:55:00.695Z,99384.03
2023-03-22T05:58:05.315Z,99391.06
2023-03-22T06:01:11.241Z,99386.72
2023-03-22T06:04:14.030Z,99394.19
2023-03-22T06:07:17.823Z,99390.00
2023-03-22T06:10:20.618Z,99391.00
2023-03-22T06:13:23.419Z,99393.00
2023-03-22T06:16:27.729Z,99395.78
2023-03-22T06:19:31.372Z,99398.31
2023-03-22T06:22:34.213Z,99397.63
2023-03-22T06:25:36.996Z,99395.28
2023-03-22T06:28:39.820Z,99393.44
2023-03-22T06:31:43.951Z,99392.44
2023-03-22T06:34:46.884Z,99406.94
2023-03-22T06:37:49.670Z,99403.66
2023-03-22T06:40:52.447Z,99404.63
2023-03-22T06:43:55.246Z,99407.47
2023-03-22T06:46:59.419Z,99396.28
2023-03-22T06:50:02.274Z,99413.97
2023-03-22T06:53:05.122Z,99414.13
2023-03-22T06:56:08.197Z,99409.91
2023-03-22T06:59:11.057Z,99417.06
2023-03-22T07:02:15.562Z,99411.75
2023-03-22T07:05:18.439Z,99412.56
2023-03-22T07:08:21.233Z,99416.91
2023-03-22T07:11:25.949Z,99415.25
2023-03-22T07:14:30.382Z,99420.75
2023-03-22T07:17:34.542Z,99419.91
2023-03-22T07:20:40.801Z,99423.56
2023-03-22T07:23:43.683Z,99424.25
2023-03-22T07:26:46.617Z,99424.41
2023-03-22T07:29:49.449Z,99417.53
2023-03-22T07:32:53.685Z,99424.41
2023-03-22T07:35:56.539Z,99427.25
2023-03-22T07:38:59.347Z,99426.25
2023-03-22T07:42:02.131Z,99420.19
2023-03-22T07:45:05.342Z,99421.91
2023-03-22T07:48:11.340Z,99420.75
2023-03-22T07:51:14.152Z,99420.06
2023-03-22T07:54:32.213Z,99417.41
2023-03-22T07:57:36.523Z,99416.25
2023-03-22T08:00:39.462Z,99417.25
2023-03-22T08:03:43.645Z,99424.69
2023-03-22T08:06:46.591Z,99429.34
2023-03-22T08:09:49.660Z,99423.72
2023-03-22T08:12:52.420Z,99427.53
2023-03-22T08:15:55.314Z,99416.41
2023-03-22T08:19:00.540Z,99408.56
2023-03-22T08:22:09.187Z,99412.19
2023-03-22T08:25:12.271Z,99415.72
2023-03-22T08:28:15.988Z,99422.56
2023-03-22T08:31:20.229Z,99418.25
2023-03-22T08:34:24.449Z,99428.06
2023-03-22T08:37:27.218Z,99422.75
2023-03-22T08:40:30.118Z,99434.25
2023-03-22T08:43:32.971Z,99424.56
2023-03-22T08:46:35.919Z,99428.75
2023-03-22T08:49:40.051Z,99429.44
2023-03-22T08:52:42.765Z,99433.41
2023-03-22T08:55:45.557Z,99431.44
2023-03-22T08:58:48.329Z,99434.94
2023-03-22T09:01:51.230Z,99434.78
2023-03-22T09:04:55.529Z,99429.28
2023-03-22T09:08:04.966Z,99433.78
2023-03-22T09:11:09.481Z,99427.31
2023-03-22T09:14:12.238Z,99439.81
2023-03-22T09:17:15.016Z,99440.34
2023-03-22T09:20:19.467Z,99426.59
2023-03-22T09:23:22.228Z,99430.38
2023-03-22T09:26:25.739Z,99436.00
2023-03-22T09:29:28.486Z,99430.66
2023-03-22T09:32:31.306Z,99433.88
2023-03-22T09:35:35.443Z,99442.03
2023-03-22T09:38:38.850Z,99435.16
2023-03-22T09:41:45.845Z,99425.16
2023-03-22T09:44:50.225Z,99425.09
2023-03-22T09:47:54.933Z,99416.50
2023-03-22T09:51:01.344Z,99425.25
2023-03-22T09:54:04.224Z,99419.69
2023-03-22T09:57:09.693Z,99414.06
2023-03-22T10:00:16.936Z,99415.31
2023-03-22T10:03:26.231Z,99425.59
2023-03-22T10:06:31.476Z,99423.47
2023-03-22T10:09:36.438Z,99414.94
2023-03-22T10:12:44.181Z,99412.31
2023-03-22T10:15:48.142Z,99414.84
2023-03-22T10:18:52.741Z,99407.72
2023-03-22T10:21:57.619Z,99402.75
2023-03-22T10:25:01.340Z,99400.56
2023-03-22T10:28:11.423Z,99395.59
2023-03-22T10:31:15.185Z,99393.94
2023-03-22T10:34:21.239Z,99392.44
2023-03-22T10:37:26.620Z,99387.09
2023-03-22T10:40:31.952Z,99391.56
2023-03-22T10:43:36.366Z,99389.41
2023-03-22T10:46:40.472Z,99394.09
2023-03-22T10:49:45.306Z,99389.75
2023-03-22T10:52:52.009Z,99382.22
2023-03-22T10:55:54.987Z,99382.84
2023-03-22T10:58:58.319Z,99384.69
2023-03-22T11:02:02.046Z,99381.34
2023-03-22T11:05:06.077Z,99385.84
2023-03-22T11:08:15.326Z,99379.66
2023-03-22T11:11:20.435Z,99377.13
2023-03-22T11:14:28.525Z,99381.81
2023-03-22T11:17:31.780Z,99375.50
2023-03-22T11:20:35.392Z,99375.19
2023-03-22T11:23:42.270Z,99374.25
2023-03-22T11:27:02.611Z,99377.06
2023-03-22T11:30:20.097Z,99379.88
2023-03-22T11:33:25.946Z,99369.81
2023-03-22T11:36:29.209Z,99377.66
2023-03-22T11:39:33.501Z,99376.00
2023-03-22T11:42:36.813Z,99371.34
2023-03-22T11:45:42.658Z,99363.47
2023-03-22T11:48:47.169Z,99375.81
2023-03-22T11:51:50.052Z,99366.94
2023-03-22T11:54:55.328Z,99369.44
2023-03-22T11:57:58.221Z,99369.72
2023-03-22T12:01:03.145Z,99375.06
2023-03-22T12:04:07.226Z,99369.63
2023-03-22T12:07:14.488Z,99362.69
2023-03-22T12:10:22.409Z,99361.69
2023-03-22T12:13:28.837Z,99359.03
2023-03-22T12:16:34.812Z,99362.69
2023-03-22T12:19:43.171Z,99367.22
2023-03-22T12:22:51.261Z,99359.84
2023-03-22T12:25:58.769Z,99363.53
2023-03-22T12:29:02.734Z,99365.22
2023-03-22T12:32:08.519Z,99356.34
2023-03-22T12:35:17.709Z,99357.34
2023-03-22T12:38:24.710Z,99356.25
2023-03-22T12:41:32.580Z,99349.50
2023-03-22T12:44:39.321Z,99362.69
2023-03-22T12:47:43.300Z,99357.69
2023-03-22T12:50:49.337Z,99356.84
2023-03-22T12:53:53.833Z,99357.19
2023-03-22T12:56:58.400Z,99355.91
2023-03-22T13:00:10.183Z,99347.22
2023-03-22T13:03:21.479Z,99347.38
2023-03-22T13:06:35.080Z,99355.69
2023-03-22T13:09:42.575Z,99354.69
2023-03-22T13:13:06.656Z,99348.31
2023-03-22T13:16:17.387Z,99351.84
2023-03-22T13:19:41.492Z,99351.84
2023-03-22T13:23:00.997Z,99355.50
2023-03-22T13:26:06.214Z,99348.31
2023-03-22T13:29:11.830Z,99349.16
2023-03-22T13:32:30.037Z,99349.31
2023-03-22T13:35:41.604Z,99350.22
2023-03-22T13:38:44.740Z,99351.72
2023-03-22T13:41:48.810Z,99356.88
2023-03-22T13:44:58.730Z,99345.16
2023-03-22T13:48:05.255Z,99351.31
2023-03-22T13:51:11.571Z,99349.84
2023-03-22T13:54:19.767Z,99338.47
2023-03-22T13:57:37.699Z,99347.28
2023-03-22T14:00:56.666Z,99353.66
2023-03-22T14:04:02.113Z,99348.47
2023-03-22T14:07:08.232Z,99346.66
2023-03-22T14:10:15.176Z,99349.31
2023-03-22T14:13:20.433Z,99344.34
2023-03-22T14:16:30.913Z,99343.97
2023-03-22T14:19:35.652Z,99345.81
